createdAt,value
2022-11-21T00:02:32.047Z,6.18
2022-11-21T00:05:04.951Z,5.72
2022-11-21T00:07:37.376Z,7.38
2022-11-21T00:10:10.550Z,5.07
2022-11-21T00:12:42.944Z,4.28
2022-11-21T00:15:15.308Z,3.50
2022-11-21T00:17:47.603Z,2.65
2022-11-21T00:20:21.460Z,4.20
2022-11-21T00:22:53.834Z,5.18
2022-11-21T00:25:26.792Z,3.17
2022-11-21T00:27:59.125Z,3.08
2022-11-21T00:30:31.617Z,3.13
2022-11-21T00:33:04.108Z,4.13
2022-11-21T00:35:36.540Z,4.47
2022-11-21T00:38:08.842Z,4.45
2022-11-21T00:40:43.259Z,3.90
2022-11-21T00:43:15.692Z,3.13
2022-11-21T00:45:48.027Z,3.25
2022-11-21T00:48:20.356Z,2.42
2022-11-21T00:50:52.685Z,1.70
2022-11-21T00:53:25.040Z,2.72
2022-11-21T00:55:58.224Z,1.98
2022-11-21T00:58:30.596Z,0.50
2022-11-21T01:01:05.463Z,0.50
2022-11-21T01:03:38.534Z,0.22
2022-11-21T01:06:12.598Z,0.20
2022-11-21T01:08:45.346Z,0.45
2022-11-21T01:11:19.965Z,0.40
2022-11-21T01:13:53.633Z,0.40
2022-11-21T01:16:27.516Z,0.30
2022-11-21T01:18:59.840Z,0.63
2022-11-21T01:21:32.236Z,0.50
2022-11-21T01:24:04.869Z,0.32
2022-11-21T01:26:38.125Z,0.63
2022-11-21T01:29:10.490Z,0.30
2022-11-21T01:31:42.812Z,0.30
2022-11-21T01:34:15.563Z,0.40
2022-11-21T01:36:47.956Z,0.52
2022-11-21T01:39:20.272Z,0.30
2022-11-21T01:41:53.224Z,0.30
2022-11-21T01:44:45.156Z,0.30
2022-11-21T01:47:17.907Z,0.40
2022-11-21T01:49:52.107Z,0.22
2022-11-21T01:52:28.528Z,0.70
2022-11-21T01:55:04.617Z,0.20
2022-11-21T01:57:40.866Z,0.38
2022-11-21T02:00:17.664Z,0.40
2022-11-21T02:02:55.092Z,0.43
2022-11-21T02:05:30.796Z,0.22
2022-11-21T02:08:07.410Z,0.30
2022-11-21T02:10:46.366Z,0.20
2022-11-21T02:13:22.040Z,0.70
2022-11-21T02:15:55.148Z,0.40
2022-11-21T02:18:27.510Z,0.20
2022-11-21T02:21:09.080Z,0.22
2022-11-21T02:23:49.040Z,0.80
2022-11-21T02:26:22.223Z,0.60
2022-11-21T02:28:54.568Z,0.38
2022-11-21T02:31:26.986Z,0.50
2022-11-21T02:33:59.341Z,0.20
2022-11-21T02:36:43.405Z,0.52
2022-11-21T02:39:21.239Z,0.40
2022-11-21T02:42:01.997Z,0.52
2022-11-21T02:44:40.315Z,0.77
2022-11-21T02:47:12.702Z,0.40
2022-11-21T02:49:50.565Z,0.30
2022-11-21T02:52:23.068Z,0.40
2022-11-21T02:54:55.404Z,0.35
2022-11-21T02:57:28.451Z,0.38
2022-11-21T03:00:00.796Z,0.60
2022-11-21T03:02:33.113Z,0.47
2022-11-21T03:05:07.566Z,0.60
2022-11-21T03:07:39.935Z,0.60
2022-11-21T03:10:13.297Z,0.38
2022-11-21T03:12:46.232Z,0.70
2022-11-21T03:15:18.665Z,0.32
2022-11-21T03:17:51.007Z,1.50
2022-11-21T03:20:23.792Z,0.47
2022-11-21T03:22:56.253Z,0.50
2022-11-21T03:25:29.070Z,0.32
2022-11-21T03:28:02.104Z,0.30
2022-11-21T03:30:34.449Z,0.60
2022-11-21T03:33:06.772Z,0.63
2022-11-21T03:35:39.135Z,0.43
2022-11-21T03:38:11.473Z,0.38
2022-11-21T03:40:43.752Z,0.40
2022-11-21T03:43:16.747Z,0.85
2022-11-21T03:45:49.122Z,0.82
2022-11-21T03:48:21.466Z,0.20
2022-11-21T03:50:54.018Z,1.00
2022-11-21T03:53:26.357Z,0.68
2022-11-21T03:55:58.687Z,0.82
2022-11-21T03:58:31.723Z,0.32
2022-11-21T04:01:04.756Z,0.52
2022-11-21T04:03:37.179Z,0.80
2022-11-21T04:06:10.140Z,0.50
2022-11-21T04:08:42.610Z,0.80
2022-11-21T04:11:15.209Z,0.43
2022-11-21T04:13:48.243Z,0.77
2022-11-21T04:16:21.020Z,1.38
2022-11-21T04:18:53.346Z,1.20
2022-11-21T04:21:25.732Z,0.85
2022-11-21T04:23:58.061Z,0.90
2022-11-21T04:26:30.439Z,1.30
2022-11-21T04:29:03.428Z,0.50
2022-11-21T04:31:35.994Z,0.60
2022-11-21T04:34:08.299Z,0.82
2022-11-21T04:36:40.671Z,0.88
2022-11-21T04:39:13.063Z,0.40
2022-11-21T04:41:45.502Z,0.60
2022-11-21T04:44:18.542Z,1.00
2022-11-21T04:46:52.474Z,0.60
2022-11-21T04:49:24.932Z,0.93
2022-11-21T04:51:57.299Z,0.57
2022-11-21T04:54:30.097Z,1.13
2022-11-21T04:57:02.833Z,0.63
2022-11-21T04:59:35.848Z,1.02
2022-11-21T05:02:08.219Z,0.80
2022-11-21T05:04:40.541Z,0.88
2022-11-21T05:07:13.274Z,0.50
2022-11-21T05:09:45.810Z,0.22
2022-11-21T05:12:36.264Z,0.57
2022-11-21T05:15:10.130Z,0.20
2022-11-21T05:17:42.463Z,0.55
2022-11-21T05:20:15.400Z,0.40
2022-11-21T05:22:51.425Z,0.85
2022-11-21T05:25:23.905Z,0.73
2022-11-21T05:27:56.691Z,0.30
2022-11-21T05:30:29.661Z,0.45
2022-11-21T05:33:02.056Z,0.85
2022-11-21T05:35:37.670Z,0.77
2022-11-21T05:38:12.653Z,1.02
2022-11-21T05:40:45.032Z,1.13
2022-11-21T05:43:35.749Z,0.38
2022-11-21T05:46:08.787Z,1.20
2022-11-21T05:48:41.479Z,0.85
2022-11-21T05:51:14.414Z,0.60
2022-11-21T05:53:47.603Z,0.68
2022-11-21T05:56:20.073Z,0.60
2022-11-21T05:58:55.022Z,0.30
2022-11-21T06:01:54.595Z,0.70
2022-11-21T06:04:27.139Z,0.75
2022-11-21T06:06:59.568Z,0.70
2022-11-21T06:09:31.971Z,1.05
2022-11-21T06:12:04.601Z,0.80
2022-11-21T06:14:37.008Z,0.88
2022-11-21T06:17:11.726Z,1.83
2022-11-21T06:19:44.140Z,0.65
2022-11-21T06:22:16.530Z,0.55
2022-11-21T06:24:48.881Z,1.75
2022-11-21T06:27:21.218Z,0.80
2022-11-21T06:29:53.645Z,1.13
2022-11-21T06:32:26.634Z,1.15
2022-11-21T06:34:58.977Z,0.63
2022-11-21T06:37:31.324Z,0.70
2022-11-21T06:40:04.474Z,1.00
2022-11-21T06:42:36.771Z,0.60
2022-11-21T06:45:09.885Z,0.75
2022-11-21T06:47:42.909Z,0.93
2022-11-21T06:50:15.985Z,0.50
2022-11-21T06:52:48.392Z,0.65
2022-11-21T06:55:22.767Z,0.90
2022-11-21T06:57:57.781Z,0.57
2022-11-21T07:00:30.264Z,0.50
2022-11-21T07:03:03.902Z,0.40
2022-11-21T07:05:36.181Z,0.40
2022-11-21T07:08:13.116Z,0.45
2022-11-21T07:11:10.247Z,0.75
2022-11-21T07:13:38.509Z,0.47
2022-11-21T07:16:13.561Z,0.38
2022-11-21T07:18:46.618Z,0.20
2022-11-21T07:21:18.950Z,0.85
2022-11-21T07:23:51.296Z,1.15
2022-11-21T07:26:23.661Z,1.05
2022-11-21T07:28:55.981Z,0.80
2022-11-21T07:31:28.368Z,0.30
2022-11-21T07:34:01.362Z,1.02
2022-11-21T07:36:35.430Z,0.38
2022-11-21T07:39:07.706Z,1.00
2022-11-21T07:41:39.956Z,0.75
2022-11-21T07:44:12.403Z,0.50
2022-11-21T07:46:44.741Z,0.50
2022-11-21T07:49:17.732Z,0.50
2022-11-21T07:51:50.030Z,0.50
2022-11-21T07:54:22.361Z,0.40
2022-11-21T07:56:54.996Z,0.57
2022-11-21T07:59:27.775Z,0.60
2022-11-21T08:02:00.434Z,1.02
2022-11-21T08:04:33.498Z,0.40
2022-11-21T08:07:05.878Z,0.88
2022-11-21T08:09:39.878Z,0.32
2022-11-21T08:12:13.055Z,0.85
2022-11-21T08:14:45.515Z,0.30
2022-11-21T08:17:17.890Z,0.55
2022-11-21T08:19:50.852Z,0.90
2022-11-21T08:22:23.194Z,0.75
2022-11-21T08:24:55.570Z,0.77
2022-11-21T08:27:28.131Z,1.13
2022-11-21T08:30:00.442Z,0.68
2022-11-21T08:32:32.837Z,0.98
2022-11-21T08:35:07.481Z,1.60
2022-11-21T08:37:39.859Z,1.27
2022-11-21T08:40:12.244Z,1.02
2022-11-21T08:42:44.600Z,1.20
2022-11-21T08:45:16.948Z,1.10
2022-11-21T08:47:49.274Z,0.65
2022-11-21T08:50:23.375Z,1.75
2022-11-21T08:53:00.043Z,1.63
2022-11-21T08:55:32.390Z,1.80
2022-11-21T08:58:04.827Z,0.68
2022-11-21T09:00:37.135Z,0.20
2022-11-21T09:03:09.516Z,0.40
2022-11-21T09:05:42.523Z,0.30
2022-11-21T09:08:14.891Z,0.40
2022-11-21T09:10:47.279Z,0.68
2022-11-21T09:13:19.640Z,0.75
2022-11-21T09:16:09.910Z,0.82
2022-11-21T09:18:42.235Z,0.82
2022-11-21T09:21:15.996Z,1.00
2022-11-21T09:23:48.421Z,0.90
2022-11-21T09:26:20.751Z,2.40
2022-11-21T09:28:53.133Z,2.25
2022-11-21T09:31:25.523Z,1.10
2022-11-21T09:33:57.922Z,1.02
2022-11-21T09:36:31.008Z,0.65
2022-11-21T09:39:04.024Z,1.45
2022-11-21T09:41:54.022Z,1.27
2022-11-21T09:44:47.325Z,1.30
2022-11-21T09:47:23.932Z,1.00
2022-11-21T09:49:59.761Z,1.42
2022-11-21T09:52:38.972Z,0.50
2022-11-21T09:55:20.867Z,0.90
2022-11-21T09:57:53.253Z,0.60
2022-11-21T10:00:26.252Z,1.35
2022-11-21T10:03:00.655Z,1.60
2022-11-21T10:05:41.495Z,1.35
2022-11-21T10:08:19.212Z,1.00
2022-11-21T10:10:55.623Z,0.88
2022-11-21T10:13:48.818Z,0.80
2022-11-21T10:16:31.089Z,2.17
2022-11-21T10:19:21.459Z,1.90
2022-11-21T10:22:17.944Z,1.23
2022-11-21T10:24:56.884Z,1.80
2022-11-21T10:27:34.801Z,0.65
2022-11-21T10:30:15.444Z,1.10
2022-11-21T10:32:50.430Z,0.95
2022-11-21T10:35:25.345Z,1.85
2022-11-21T10:38:00.654Z,1.23
2022-11-21T10:40:36.911Z,1.05
2022-11-21T10:43:42.157Z,2.05
2022-11-21T10:46:14.468Z,1.67
2022-11-21T10:48:54.260Z,1.40
2022-11-21T10:54:27.825Z,1.08
2022-11-21T10:57:06.985Z,1.17
2022-11-21T10:59:39.493Z,1.40
2022-11-21T11:02:23.882Z,1.48
2022-11-21T11:05:20.090Z,1.05
2022-11-21T11:08:01.643Z,1.30
2022-11-21T11:10:35.780Z,1.02
2022-11-21T11:13:49.458Z,0.60
2022-11-21T11:16:24.452Z,1.08
2022-11-21T11:19:00.113Z,1.33
2022-11-21T11:21:43.555Z,0.63
2022-11-21T11:24:26.297Z,1.00
2022-11-21T11:27:00.584Z,1.35
2022-11-21T11:29:48.520Z,1.05
2022-11-21T11:32:22.161Z,1.45
2022-11-21T11:34:59.388Z,1.55
2022-11-21T11:37:40.763Z,1.25
2022-11-21T11:40:20.940Z,1.55
2022-11-21T11:43:27.214Z,1.33
2022-11-21T11:46:36.555Z,2.13
2022-11-21T11:49:21.728Z,1.88
2022-11-21T11:51:58.342Z,3.05
2022-11-21T11:54:40.808Z,2.65
2022-11-21T11:57:13.906Z,3.03
2022-11-21T11:59:53.740Z,2.83
2022-11-21T12:02:38.876Z,2.92
2022-11-21T12:05:17.594Z,3.03
2022-11-21T12:08:40.203Z,2.55
2022-11-21T12:11:24.776Z,1.15
2022-11-21T12:14:37.016Z,1.27
2022-11-21T12:17:10.980Z,2.78
2022-11-21T12:19:44.398Z,1.77
2022-11-21T12:22:16.785Z,1.50
2022-11-21T12:24:49.219Z,0.77
2022-11-21T12:27:29.247Z,1.30
2022-11-21T12:30:20.874Z,1.17
2022-11-21T12:32:57.488Z,1.67
2022-11-21T12:35:47.283Z,1.00
2022-11-21T12:38:39.424Z,1.20
2022-11-21T12:41:42.646Z,2.60
2022-11-21T12:44:31.709Z,1.58
2022-11-21T12:47:18.226Z,1.42
2022-11-21T12:50:14.545Z,1.13
2022-11-21T12:53:11.964Z,1.30
2022-11-21T12:55:44.464Z,3.05
2022-11-21T12:58:26.651Z,2.13
2022-11-21T13:01:21.079Z,1.05
2022-11-21T13:03:59.638Z,0.93
2022-11-21T13:06:37.309Z,0.98
2022-11-21T13:09:17.554Z,1.17
2022-11-21T13:12:00.903Z,0.93
2022-11-21T13:14:41.454Z,0.63
2022-11-21T13:17:28.511Z,0.70
2022-11-21T13:20:06.465Z,1.45
2022-11-21T13:22:50.442Z,2.38
2022-11-21T13:25:45.582Z,1.05
2022-11-21T13:28:37.317Z,1.00
2022-11-21T13:31:31.170Z,0.75
2022-11-21T13:34:04.575Z,0.68
2022-11-21T13:36:41.192Z,0.40
2022-11-21T13:39:33.261Z,0.90
2022-11-21T13:42:26.619Z,1.10
2022-11-21T13:45:19.902Z,0.95
2022-11-21T13:48:31.231Z,0.60
2022-11-21T13:51:37.147Z,0.73
2022-11-21T13:54:45.202Z,0.88
2022-11-21T13:57:40.651Z,0.88
2022-11-21T14:00:29.476Z,0.85
2022-11-21T14:03:55.719Z,1.07
2022-11-21T14:06:35.896Z,1.02
2022-11-21T14:09:19.994Z,1.25
2022-11-21T14:11:56.088Z,0.90
2022-11-21T14:14:33.335Z,1.15
2022-11-21T14:17:32.631Z,0.98
2022-11-21T14:20:16.451Z,0.95
2022-11-21T14:23:02.571Z,1.20
2022-11-21T14:25:44.386Z,1.02
2022-11-21T14:28:22.954Z,1.08
2022-11-21T14:31:00.274Z,0.75
2022-11-21T14:33:34.044Z,0.80
2022-11-21T14:36:08.590Z,0.70
2022-11-21T14:38:43.113Z,0.98
2022-11-21T14:41:32.018Z,1.02
2022-11-21T14:44:13.563Z,1.33
2022-11-21T14:46:47.722Z,1.90
2022-11-21T14:49:28.376Z,2.72
2022-11-21T14:52:16.500Z,3.03
2022-11-21T14:57:45.267Z,1.40
2022-11-21T15:00:51.331Z,1.77
2022-11-21T15:03:19.963Z,1.40
2022-11-21T15:06:05.733Z,2.35
2022-11-21T15:11:36.542Z,2.05
2022-11-21T15:14:18.942Z,3.25
2022-11-21T15:16:52.966Z,1.95
2022-11-21T15:19:28.679Z,1.63
2022-11-21T15:22:03.588Z,1.52
2022-11-21T15:24:41.645Z,2.00
2022-11-21T15:27:29.759Z,2.17
2022-11-21T15:30:21.440Z,3.05
2022-11-21T15:33:09.291Z,3.90
2022-11-21T15:35:47.405Z,2.15
2022-11-21T15:38:24.718Z,1.60
2022-11-21T15:41:02.787Z,3.63
2022-11-21T15:43:41.151Z,7.43
2022-11-21T15:46:18.441Z,4.50
2022-11-21T15:48:52.369Z,2.90
2022-11-21T15:51:44.351Z,1.75
2022-11-21T15:54:21.088Z,1.90
2022-11-21T15:56:53.518Z,2.10
2022-11-21T15:59:26.271Z,1.50
2022-11-21T16:01:58.981Z,2.95
2022-11-21T16:04:31.302Z,3.50
2022-11-21T16:07:04.276Z,2.67
2022-11-21T16:09:37.928Z,2.00
2022-11-21T16:12:10.213Z,1.58
2022-11-21T16:14:42.522Z,1.67
2022-11-21T16:17:15.006Z,1.17
2022-11-21T16:19:47.289Z,1.90
2022-11-21T16:22:20.282Z,1.60
2022-11-21T16:24:52.611Z,4.13
2022-11-21T16:27:24.968Z,4.28
2022-11-21T16:29:57.427Z,4.28
2022-11-21T16:32:29.933Z,4.97
2022-11-21T16:35:02.330Z,4.82
2022-11-21T16:37:35.352Z,6.45
2022-11-21T16:40:09.724Z,4.82
2022-11-21T16:42:42.073Z,6.82
2022-11-21T16:45:14.807Z,4.22
2022-11-21T16:47:48.951Z,5.78
2022-11-21T16:50:21.914Z,10.73
2022-11-21T16:52:54.952Z,9.07
2022-11-21T16:55:29.790Z,5.68
2022-11-21T16:58:02.142Z,8.27
2022-11-21T17:00:34.878Z,7.18
2022-11-21T17:03:07.278Z,6.80
2022-11-21T17:05:39.581Z,8.52
2022-11-21T17:08:12.606Z,12.38
2022-11-21T17:10:45.034Z,8.48
2022-11-21T17:13:17.366Z,6.70
2022-11-21T17:15:49.697Z,3.28
2022-11-21T17:18:22.034Z,2.22
2022-11-21T17:20:54.367Z,5.65
2022-11-21T17:23:30.909Z,5.68
2022-11-21T17:26:03.999Z,2.40
2022-11-21T17:28:39.707Z,2.35
2022-11-21T17:31:16.907Z,6.75
2022-11-21T17:33:51.046Z,6.72
2022-11-21T17:36:25.486Z,15.27
2022-11-21T17:38:58.572Z,7.88
2022-11-21T17:41:30.872Z,5.30
2022-11-21T17:44:03.199Z,3.97
2022-11-21T17:46:35.503Z,7.50
2022-11-21T17:49:09.400Z,3.63
2022-11-21T17:51:42.113Z,2.83
2022-11-21T17:54:15.097Z,1.58
2022-11-21T17:56:52.573Z,1.42
2022-11-21T17:59:28.016Z,1.40
2022-11-21T18:02:01.390Z,1.92
2022-11-21T18:04:38.112Z,2.35
2022-11-21T18:07:10.567Z,3.65
2022-11-21T18:09:43.610Z,4.60
2022-11-21T18:12:15.977Z,4.97
2022-11-21T18:14:48.317Z,5.90
2022-11-21T18:17:20.753Z,3.15
2022-11-21T18:19:53.596Z,4.65
2022-11-21T18:22:29.594Z,4.50
2022-11-21T18:25:03.405Z,4.82
2022-11-21T18:27:35.790Z,4.72
2022-11-21T18:30:09.717Z,4.78
2022-11-21T18:32:42.920Z,8.95
2022-11-21T18:35:15.848Z,7.05
2022-11-21T18:37:48.348Z,4.30
2022-11-21T18:40:21.637Z,2.85
2022-11-21T18:42:53.999Z,1.80
2022-11-21T18:45:26.371Z,1.55
2022-11-21T18:47:58.746Z,2.08
2022-11-21T18:50:31.952Z,1.17
2022-11-21T18:53:04.280Z,3.40
2022-11-21T18:55:39.286Z,1.70
2022-11-21T18:58:12.164Z,1.35
2022-11-21T19:00:44.702Z,2.45
2022-11-21T19:03:19.099Z,4.50
2022-11-21T19:05:51.462Z,3.00
2022-11-21T19:08:25.038Z,3.03
2022-11-21T19:11:02.206Z,2.47
2022-11-21T19:13:35.500Z,2.80
2022-11-21T19:16:11.831Z,3.20
2022-11-21T19:18:51.320Z,4.55
2022-11-21T19:21:35.286Z,4.05
2022-11-21T19:24:12.301Z,3.40
2022-11-21T19:26:45.355Z,3.28
2022-11-21T19:29:18.376Z,3.03
2022-11-21T19:31:50.741Z,3.70
2022-11-21T19:34:23.125Z,3.72
2022-11-21T19:36:55.487Z,3.42
2022-11-21T19:39:29.289Z,3.38
2022-11-21T19:42:02.406Z,4.72
2022-11-21T19:44:34.750Z,9.68
2022-11-21T19:47:07.072Z,6.88
2022-11-21T19:49:39.487Z,5.93
2022-11-21T19:52:11.847Z,7.97
2022-11-21T19:54:44.207Z,7.15
2022-11-21T19:57:17.327Z,4.45
2022-11-21T19:59:49.735Z,1.70
2022-11-21T20:02:22.089Z,1.73
2022-11-21T20:04:54.419Z,1.92
2022-11-21T20:07:27.155Z,2.03
2022-11-21T20:09:59.551Z,2.78
2022-11-21T20:12:34.277Z,2.67
2022-11-21T20:15:07.942Z,3.42
2022-11-21T20:17:40.535Z,3.63
2022-11-21T20:20:12.884Z,4.07
2022-11-21T20:22:45.272Z,3.60
2022-11-21T20:25:17.585Z,2.80
2022-11-21T20:27:50.626Z,2.03
2022-11-21T20:30:24.372Z,3.25
2022-11-21T20:32:56.701Z,5.32
2022-11-21T20:35:29.023Z,4.88
2022-11-21T20:38:01.406Z,1.98
2022-11-21T20:40:33.774Z,1.58
2022-11-21T20:43:06.761Z,3.80
2022-11-21T20:48:34.190Z,3.33
2022-11-21T20:52:19.677Z,3.30
2022-11-21T20:54:03.339Z,3.58
2022-11-21T20:56:38.639Z,3.67
2022-11-21T20:59:13.746Z,4.90
2022-11-21T21:01:46.272Z,3.92
2022-11-21T21:04:18.904Z,3.83
2022-11-21T21:06:51.276Z,2.40
2022-11-21T21:09:23.663Z,1.42
2022-11-21T21:11:56.071Z,1.17
2022-11-21T21:14:29.072Z,5.88
2022-11-21T21:17:01.471Z,1.92
2022-11-21T21:19:33.769Z,3.47
2022-11-21T21:22:08.252Z,2.90
2022-11-21T21:24:40.614Z,1.80
2022-11-21T21:27:12.989Z,1.67
2022-11-21T21:29:46.077Z,0.93
2022-11-21T21:32:18.434Z,1.10
2022-11-21T21:34:50.835Z,0.90
2022-11-21T21:37:23.252Z,0.80
2022-11-21T21:39:55.636Z,2.20
2022-11-21T21:42:27.995Z,2.33
2022-11-21T21:45:01.896Z,4.70
2022-11-21T21:47:34.254Z,4.05
2022-11-21T21:50:14.419Z,5.70
2022-11-21T21:52:48.041Z,10.60
2022-11-21T21:55:20.372Z,3.20
2022-11-21T21:57:52.847Z,5.20
2022-11-21T22:00:25.851Z,7.38
2022-11-21T22:02:58.222Z,11.05
2022-11-21T22:05:31.405Z,2.88
2022-11-21T22:08:03.804Z,1.90
2022-11-21T22:10:36.156Z,1.52
2022-11-21T22:13:08.512Z,1.73
2022-11-21T22:15:41.535Z,1.08
2022-11-21T22:18:13.874Z,2.22
2022-11-21T22:20:46.248Z,2.10
2022-11-21T22:23:18.930Z,1.50
2022-11-21T22:25:55.086Z,1.58
2022-11-21T22:28:28.328Z,1.33
2022-11-21T22:31:01.447Z,2.08
2022-11-21T22:33:33.794Z,2.83
2022-11-21T22:36:07.859Z,1.35
2022-11-21T22:38:40.754Z,3.92
2022-11-21T22:41:15.537Z,1.92
2022-11-21T22:43:50.429Z,1.27
2022-11-21T22:46:24.877Z,0.70
2022-11-21T22:48:57.355Z,1.73
2022-11-21T22:51:30.094Z,1.67
2022-11-21T22:54:02.586Z,1.15
2022-11-21T22:56:35.118Z,1.65
2022-11-21T22:59:07.434Z,1.38
2022-11-21T23:01:40.461Z,1.20
2022-11-21T23:04:17.441Z,1.38
2022-11-21T23:06:50.291Z,2.10
2022-11-21T23:09:22.609Z,1.75
2022-11-21T23:11:54.981Z,1.52
2022-11-21T23:14:27.443Z,1.55
2022-11-21T23:17:00.768Z,1.20
2022-11-21T23:19:33.133Z,1.45
2022-11-21T23:22:05.633Z,2.15
2022-11-21T23:24:37.944Z,3.70
2022-11-21T23:27:10.326Z,2.70
2022-11-21T23:29:42.647Z,2.10
2022-11-21T23:32:16.394Z,1.77
2022-11-21T23:34:48.850Z,1.25
2022-11-21T23:37:21.168Z,1.73
2022-11-21T23:39:53.490Z,1.50
2022-11-21T23:42:25.774Z,1.55
2022-11-21T23:44:59.365Z,1.60
2022-11-21T23:47:32.380Z,2.13
2022-11-21T23:50:06.124Z,2.53
2022-11-21T23:52:38.473Z,1.50
2022-11-21T23:55:10.967Z,1.42
2022-11-21T23:57:46.714Z,1.42
